Time;durP1;ratioP1;P1;durP2;ratioP2;P2;SDS_P1;SDS_P2;PMS_P1;PMS_P2;Temp;Humidity;BMP_temperature;BMP_pressure;BME280_temperature;BME280_humidity;BME280_pressure;Samples;Min_cycle;Max_cycle;Signal;HPM_P1;HPM_P2
2024/03/31 00:00:03;;;;;;;14.02;5.45;;;;;;;13.16;63.74;100039.91;5050729;28;20033;-80
2024/03/31 00:02:30;;;;;;;13.30;6.97;;;;;;;13.41;62.83;100057.56;5050326;28;20028;-79
2024/03/31 00:04:55;;;;;;;16.17;6.65;;;;;;;13.36;64.03;100076.19;5049503;28;20040;-79
2024/03/31 00:07:21;;;;;;;16.27;4.68;;;;;;;13.12;63.63;100049.47;5049042;28;20048;-79
2024/03/31 00:09:48;;;;;;;10.50;5.13;;;;;;;13.01;64.59;100039.56;5050586;28;20406;-78
2024/03/31 00:12:14;;;;;;;13.37;5.00;;;;;;;13.26;63.82;100053.50;5050453;28;20040;-79
2024/03/31 00:14:39;;;;;;;12.77;5.18;;;;;;;12.83;66.78;100062.75;5049273;28;20029;-79
2024/03/31 00:17:07;;;;;;;16.25;5.72;;;;;;;13.27;64.71;100084.56;5052246;28;20446;-80
2024/03/31 00:19:32;;;;;;;;;;;;;;;13.66;62.85;100076.81;5051059;28;20033;-79
2024/03/31 00:21:58;;;;;;;14.02;5.75;;;;;;;13.56;62.74;100065.88;5050727;28;20319;-80
2024/03/31 00:24:25;;;;;;;17.27;6.72;;;;;;;12.98;64.61;100038.19;5057170;28;20032;-78
2024/03/31 00:26:50;;;;;;;14.05;5.20;;;;;;;12.96;65.99;100066.25;5041931;28;20026;-79
2024/03/31 00:29:16;;;;;;;13.30;5.78;;;;;;;12.80;64.93;100030.28;5040389;28;20131;-79
2024/03/31 00:31:43;;;;;;;16.10;5.65;;;;;;;13.01;64.87;100059.13;5050426;28;20031;-79
2024/03/31 00:34:08;;;;;;;14.98;5.22;;;;;;;13.21;65.14;100088.19;5071469;28;20040;-79
2024/03/31 00:36:34;;;;;;;12.00;5.03;;;;;;;12.50;66.65;100041.13;5064407;28;20091;-79
2024/03/31 00:38:59;;;;;;;14.30;6.32;;;;;;;12.86;66.67;100083.69;5047287;28;20519;-79
2024/03/31 00:41:24;;;;;;;15.55;5.47;;;;;;;13.18;65.94;100096.72;5051681;28;20083;-79
2024/03/31 00:43:50;;;;;;;12.57;5.80;;;;;;;12.59;67.31;100069.16;5048859;28;20063;-79
2024/03/31 00:46:15;;;;;;;17.02;6.57;;;;;;;12.96;66.59;100075.06;5052723;28;20028;-78
2024/03/31 00:48:41;;;;;;;16.58;6.45;;;;;;;12.96;66.78;100068.91;5044238;28;20060;-80
2024/03/31 00:51:06;;;;;;;19.95;7.65;;;;;;;12.75;68.46;100075.66;5043633;28;20025;-80
2024/03/31 00:53:31;;;;;;;17.55;6.90;;;;;;;12.60;67.38;100058.22;5047809;28;20120;-79
2024/03/31 00:55:57;;;;;;;17.27;6.90;;;;;;;12.78;66.98;100069.84;5051144;28;20041;-80
2024/03/31 00:58:22;;;;;;;20.45;7.15;;;;;;;12.45;67.98;100061.34;5050796;28;20032;-79
2024/03/31 01:00:48;;;;;;;15.95;6.70;;;;;;;12.80;67.13;100079.28;5048066;28;20036;-78
2024/03/31 01:03:13;;;;;;;14.98;6.25;;;;;;;12.61;66.36;100037.63;5039789;28;20093;-79
2024/03/31 01:05:38;;;;;;;14.05;6.40;;;;;;;12.75;65.73;100051.56;5049534;28;20063;-79
2024/03/31 01:08:04;;;;;;;14.70;5.72;;;;;;;12.69;64.92;100049.84;5049383;28;20032;-79
2024/03/31 01:10:30;;;;;;;13.02;5.40;;;;;;;12.30;66.05;100066.34;5048647;28;20399;-78
2024/03/31 01:12:55;;;;;;;17.65;5.32;;;;;;;12.73;65.47;100078.59;5050910;28;20085;-78
2024/03/31 01:15:21;;;;;;;13.30;4.68;;;;;;;12.81;64.53;100078.25;5069171;28;20116;-78
2024/03/31 01:17:47;;;;;;;12.02;4.45;;;;;;;12.88;64.08;100088.00;5056746;28;20025;-78
2024/03/31 01:20:13;;;;;;;12.10;4.85;;;;;;;12.57;64.02;100056.00;5050572;28;20117;-78
2024/03/31 01:22:40;;;;;;;13.60;5.07;;;;;;;12.24;65.66;100070.75;5033501;28;20124;-79
2024/03/31 01:25:05;;;;;;;10.68;4.43;;;;;;;12.53;65.82;100091.50;5048729;28;20438;-79
2024/03/31 01:27:31;;;;;;;12.30;4.72;;;;;;;12.45;66.40;100090.75;5048912;28;20116;-79
2024/03/31 01:29:56;;;;;;;11.07;5.28;;;;;;;12.46;66.39;100079.03;5045438;28;20045;-79
2024/03/31 01:32:22;;;;;;;12.23;5.38;;;;;;;12.37;66.15;100074.25;5035875;28;20021;-80
2024/03/31 01:34:47;;;;;;;18.90;6.05;;;;;;;12.52;66.38;100092.53;5048703;28;20047;-79
2024/03/31 01:37:14;;;;;;;16.17;6.93;;;;;;;12.22;66.39;100098.75;5041285;28;20037;-79
2024/03/31 01:39:40;;;;;;;12.10;5.68;;;;;;;12.26;67.78;100107.94;5048777;28;20032;-79
2024/03/31 01:42:05;;;;;;;15.55;7.28;;;;;;;12.21;67.66;100100.59;5047980;28;20028;-78
2024/03/31 01:44:31;;;;;;;13.05;5.63;;;;;;;11.56;70.31;100101.22;5048595;28;20029;-78
2024/03/31 01:46:56;;;;;;;12.45;5.18;;;;;;;11.25;71.40;100088.88;5040649;28;20021;-80
2024/03/31 01:49:22;;;;;;;13.02;5.57;;;;;;;11.70;70.30;100106.44;5048337;28;20452;-79
2024/03/31 01:51:47;;;;;;;12.90;5.90;;;;;;;10.83;72.95;100070.84;5047897;28;20037;-79
2024/03/31 01:54:12;;;;;;;13.75;5.25;;;;;;;10.05;75.70;100074.72;5048227;28;20056;-78
2024/03/31 01:56:38;;;;;;;16.13;5.20;;;;;;;9.80;76.06;100081.84;5035561;28;20051;-79
2024/03/31 01:59:03;;;;;;;12.85;5.07;;;;;;;10.11;74.95;100085.53;5048146;28;20036;-79
2024/03/31 02:01:29;;;;;;;11.45;5.85;;;;;;;9.62;78.18;100083.38;5047958;28;20033;-78
2024/03/31 02:03:54;;;;;;;14.73;6.03;;;;;;;9.76;75.93;100072.63;5045276;28;20025;-79
2024/03/31 02:06:20;;;;;;;14.68;5.55;;;;;;;9.30;78.35;100057.72;5047951;28;20024;-80
2024/03/31 02:08:45;;;;;;;12.50;5.68;;;;;;;9.35;79.25;100087.16;5047391;28;20025;-78
2024/03/31 02:11:11;;;;;;;15.75;5.78;;;;;;;9.88;76.87;100100.22;5049222;28;20032;-79
2024/03/31 02:13:36;;;;;;;12.05;6.00;;;;;;;9.69;78.96;100086.00;5037257;28;20417;-79
2024/03/31 02:16:01;;;;;;;13.52;5.93;;;;;;;10.03;79.15;100100.78;5049576;28;20047;-78
2024/03/31 02:18:27;;;;;;;11.68;5.65;;;;;;;10.11;77.27;100088.22;5041013;28;20490;-79
2024/03/31 02:20:52;;;;;;;13.90;5.65;;;;;;;10.01;78.23;100057.53;5053804;28;20039;-79
2024/03/31 02:23:18;;;;;;;15.93;5.97;;;;;;;10.90;74.87;100107.31;5034372;28;20025;-79
2024/03/31 02:25:43;;;;;;;12.25;5.57;;;;;;;11.12;73.69;100108.53;5048112;28;20025;-78
2024/03/31 02:28:08;;;;;;;15.05;5.60;;;;;;;11.19;72.78;100106.59;5048098;28;20028;-78
2024/03/31 02:30:34;;;;;;;17.73;5.22;;;;;;;10.70;74.28;100072.81;5049970;28;20119;-78
2024/03/31 02:32:59;;;;;;;14.73;6.25;;;;;;;10.72;75.79;100105.41;5039761;28;20033;-79
2024/03/31 02:35:24;;;;;;;14.38;5.30;;;;;;;9.87;79.08;100085.28;5062162;28;20103;-79
2024/03/31 02:37:50;;;;;;;14.65;6.03;;;;;;;10.10;79.18;100102.56;5064037;28;20081;-78
2024/03/31 02:40:15;;;;;;;14.35;5.97;;;;;;;10.20;77.72;100081.59;5048110;28;20029;-79
2024/03/31 02:42:42;;;;;;;14.27;5.35;;;;;;;10.16;79.41;100112.38;5047815;28;20116;-80
2024/03/31 02:45:08;;;;;;;10.25;5.15;;;;;;;10.31;76.82;100067.59;5050194;28;20536;-78
2024/03/31 02:47:33;;;;;;;9.82;4.85;;;;;;;10.58;76.41;100112.72;5048010;28;20029;-79
2024/03/31 02:49:59;;;;;;;13.13;5.15;;;;;;;10.22;78.28;100090.19;5035661;28;20108;-79
2024/03/31 02:52:24;;;;;;;14.02;4.45;;;;;;;10.71;75.43;100115.28;5041832;28;20121;-78
2024/03/31 02:54:49;;;;;;;10.68;4.50;;;;;;;10.82;73.79;100125.22;5050160;28;20021;-78
2024/03/31 02:57:15;;;;;;;13.82;4.05;;;;;;;10.05;76.87;100090.72;5060341;28;20097;-79
2024/03/31 02:59:40;;;;;;;13.50;4.80;;;;;;;9.36;81.46;100118.09;5063874;28;20029;-79
2024/03/31 03:02:05;;;;;;;11.00;5.13;;;;;;;9.49;80.30;100117.22;5071982;28;20032;-79
2024/03/31 03:04:31;;;;;;;10.52;5.75;;;;;;;9.73;79.24;100139.66;5073804;28;20066;-79
2024/03/31 03:06:57;;;;;;;13.82;5.70;;;;;;;9.47;82.18;100146.69;5071680;28;20379;-79
2024/03/31 03:09:22;;;;;;;16.25;5.93;;;;;;;10.03;78.81;100143.41;5059962;28;20029;-79
2024/03/31 03:11:48;;;;;;;16.13;5.68;;;;;;;10.16;76.92;100131.03;5061021;28;20028;-79
2024/03/31 03:14:13;;;;;;;13.10;6.15;;;;;;;9.33;83.30;100140.59;5061580;28;20093;-79
2024/03/31 03:16:39;;;;;;;16.08;6.32;;;;;;;9.08;84.32;100105.03;5060873;28;20089;-76
2024/03/31 03:19:04;;;;;;;14.13;5.68;;;;;;;9.84;79.37;100152.28;5054281;28;20029;-78
2024/03/31 03:21:30;;;;;;;18.38;5.50;;;;;;;9.76;78.41;100117.91;5054914;28;20078;-77
2024/03/31 03:23:55;;;;;;;15.35;5.55;;;;;;;9.98;77.79;100124.56;5047537;28;20021;-78
2024/03/31 03:26:21;;;;;;;15.57;5.30;;;;;;;10.23;76.43;100150.44;5053061;28;20056;-77
2024/03/31 03:28:46;;;;;;;12.32;5.65;;;;;;;9.86;79.61;100150.22;5046001;28;20029;-78
2024/03/31 03:31:12;;;;;;;16.40;5.45;;;;;;;10.21;77.18;100147.19;5054259;28;20095;-77
2024/03/31 03:33:38;;;;;;;13.15;5.55;;;;;;;10.18;76.67;100131.63;5050588;28;20032;-78
2024/03/31 03:36:04;;;;;;;11.98;4.93;;;;;;;9.97;75.66;100077.66;5048471;28;20029;-78
2024/03/31 03:38:30;;;;;;;15.45;4.97;;;;;;;10.05;76.79;100137.84;5043149;28;20025;-79
2024/03/31 03:40:55;;;;;;;14.70;4.95;;;;;;;9.79;79.92;100154.78;5051544;28;20184;-78
2024/03/31 03:43:21;;;;;;;12.52;5.18;;;;;;;9.60;81.50;100151.16;5054293;28;20047;-78
2024/03/31 03:45:46;;;;;;;14.27;5.43;;;;;;;9.45;81.60;100127.47;5048078;28;20174;-79
2024/03/31 03:48:12;;;;;;;11.70;5.38;;;;;;;9.73;78.18;100113.03;5040291;28;20029;-79
2024/03/31 03:50:37;;;;;;;11.40;5.40;;;;;;;10.20;76.98;100172.22;5048156;28;20100;-79
2024/03/31 03:53:05;;;;;;;14.48;4.97;;;;;;;9.56;81.61;100153.44;5048612;28;20036;-79
2024/03/31 03:55:31;;;;;;;15.18;5.60;;;;;;;9.37;80.96;100157.78;5035553;28;20583;-79
2024/03/31 03:57:56;;;;;;;11.18;5.47;;;;;;;9.08;83.67;100150.28;5042876;28;20053;-80
2024/03/31 04:00:22;;;;;;;11.65;5.75;;;;;;;9.44;81.46;100147.13;5050511;28;20025;-80
2024/03/31 04:02:48;;;;;;;14.77;7.07;;;;;;;10.01;77.60;100166.78;5058767;28;20039;-79
2024/03/31 04:05:13;;;;;;;15.57;6.53;;;;;;;9.76;78.33;100133.88;5041542;28;20029;-78
2024/03/31 04:07:39;;;;;;;15.20;5.10;;;;;;;9.59;77.49;100129.03;5050597;28;20405;-79
2024/03/31 04:10:05;;;;;;;15.30;6.15;;;;;;;9.93;78.14;100163.50;5044270;28;20104;-79
2024/03/31 04:12:30;;;;;;;15.02;6.25;;;;;;;9.60;79.67;100140.50;5050168;28;20033;-79
2024/03/31 04:14:56;;;;;;;11.10;5.63;;;;;;;9.57;80.95;100156.91;5044885;28;20513;-80
2024/03/31 04:17:21;;;;;;;23.30;6.78;;;;;;;9.13;82.89;100134.50;5050402;28;20486;-79
2024/03/31 04:19:47;;;;;;;16.33;5.90;;;;;;;9.09;84.65;100179.31;5050031;28;20021;-79
2024/03/31 04:22:12;;;;;;;28.55;16.83;;;;;;;9.30;84.95;100177.47;5050464;28;20025;-79
2024/03/31 04:24:38;;;;;;;333.38;132.38;;;;;;;9.32;83.54;100164.78;5068466;28;20043;-80
2024/03/31 04:27:03;;;;;;;171.43;70.50;;;;;;;9.61;82.49;100185.56;5067851;28;20033;-79
2024/03/31 04:29:29;;;;;;;14.65;5.68;;;;;;;9.38;83.84;100180.72;5063444;28;20045;-79
2024/03/31 04:31:58;;;;;;;14.95;5.28;;;;;;;9.35;82.88;100169.66;5051602;28;20708;-79
2024/03/31 04:34:27;;;;;;;15.35;5.72;;;;;;;9.69;82.31;100197.03;5049659;28;20111;-80
2024/03/31 04:36:54;;;;;;;13.63;6.30;;;;;;;9.93;80.23;100201.66;5049966;28;20063;-79
2024/03/31 04:39:20;;;;;;;13.55;4.30;;;;;;;9.08;88.64;100198.16;5049968;28;20054;-78
2024/03/31 04:41:45;;;;;;;12.75;5.20;;;;;;;8.95;87.15;100210.44;5049600;28;20051;-80
2024/03/31 04:44:11;;;;;;;14.82;5.20;;;;;;;9.12;80.98;100164.78;5049759;28;20035;-79
2024/03/31 04:46:37;;;;;;;12.38;6.40;;;;;;;9.08;81.12;100180.34;5049561;28;20083;-79
2024/03/31 04:49:05;;;;;;;20.58;9.88;;;;;;;9.61;81.31;100217.53;5049526;28;20037;-78
2024/03/31 04:51:31;;;;;;;23.58;8.77;;;;;;;9.39;82.91;100208.16;5049478;28;20021;-79
2024/03/31 04:53:56;;;;;;;15.25;6.95;;;;;;;9.71;81.87;100216.28;5050333;28;20149;-79
2024/03/31 04:56:22;;;;;;;12.43;5.57;;;;;;;9.82;82.30;100200.44;5049633;28;20507;-79
2024/03/31 04:58:48;;;;;;;19.58;5.40;;;;;;;9.82;83.58;100221.75;5049750;28;20819;-80
2024/03/31 05:01:13;;;;;;;18.52;7.43;;;;;;;9.92;83.57;100215.97;5048106;28;20186;-79
2024/03/31 05:03:39;;;;;;;20.80;7.68;;;;;;;9.87;83.93;100194.50;5050622;28;20028;-78
2024/03/31 05:06:04;;;;;;;12.45;5.57;;;;;;;10.51;82.62;100242.63;5049364;28;20032;-79
2024/03/31 05:08:30;;;;;;;10.15;5.03;;;;;;;10.27;80.99;100216.44;5047219;28;20509;-78
2024/03/31 05:10:59;;;;;;;16.38;5.32;;;;;;;10.24;80.88;100238.19;5049280;28;20036;-79
2024/03/31 05:13:27;;;;;;;11.40;3.60;;;;;;;9.86;82.17;100192.84;5043323;28;20493;-79
2024/03/31 05:16:03;;;;;;;;;;;;;;;10.36;80.50;100243.72;5049403;28;20490;-79
2024/03/31 05:18:29;;;;;;;12.55;3.67;;;;;;;10.34;79.62;100221.78;5069090;28;20345;-80
2024/03/31 05:21:02;;;;;;;9.02;2.80;;;;;;;10.52;80.13;100222.91;5061903;28;20021;-79
2024/03/31 05:23:28;;;;;;;10.02;2.97;;;;;;;10.83;77.38;100233.56;5048738;28;20050;-80
2024/03/31 05:25:58;;;;;;;7.15;2.35;;;;;;;10.84;76.00;100205.84;5048640;28;20036;-79
2024/03/31 05:28:24;;;;;;;6.00;2.47;;;;;;;11.01;76.81;100242.66;5048504;28;20501;-80
2024/03/31 05:30:50;;;;;;;11.60;3.13;;;;;;;10.94;79.34;100234.72;5049578;28;20044;-80
2024/03/31 05:33:15;;;;;;;8.07;2.75;;;;;;;11.11;82.67;100240.31;5050588;28;20025;-79
2024/03/31 05:35:41;;;;;;;9.95;3.00;;;;;;;11.49;78.15;100223.38;5047856;28;20043;-80
2024/03/31 05:38:11;;;;;;;10.18;2.92;;;;;;;12.09;74.40;100227.25;5048838;28;20067;-80
2024/03/31 05:40:41;;;;;;;10.60;4.22;;;;;;;11.97;76.12;100236.03;5048421;28;20497;-78
2024/03/31 05:43:07;;;;;;;30.98;12.85;;;;;;;12.03;77.14;100237.81;5048243;28;20024;-80
2024/03/31 05:45:34;;;;;;;32.50;15.75;;;;;;;12.12;76.72;100234.84;5047900;28;20037;-78
2024/03/31 05:48:10;;;;;;;28.43;11.50;;;;;;;11.96;81.23;100233.59;5047273;28;20456;-80
2024/03/31 05:50:35;;;;;;;23.10;11.30;;;;;;;12.33;79.73;100245.03;5049139;28;20028;-78
2024/03/31 05:53:01;;;;;;;14.23;6.55;;;;;;;12.74;75.64;100256.00;5048181;28;20082;-80
2024/03/31 05:55:28;;;;;;;14.52;5.28;;;;;;;12.49;77.82;100246.28;5043154;28;20051;-80
2024/03/31 05:57:57;;;;;;;12.38;5.05;;;;;;;12.68;76.66;100252.38;5048041;28;20544;-80
2024/03/31 06:00:24;;;;;;;13.25;5.28;;;;;;;12.81;79.45;100241.50;5047631;28;20406;-79
2024/03/31 06:02:50;;;;;;;11.90;4.97;;;;;;;13.37;74.74;100263.47;5048584;28;20036;-78
2024/03/31 06:05:15;;;;;;;12.07;5.10;;;;;;;13.25;74.45;100273.34;5049986;28;20028;-81
2024/03/31 06:07:41;;;;;;;9.35;3.67;;;;;;;13.36;76.18;100269.91;5047834;28;20037;-79
2024/03/31 06:10:06;;;;;;;11.18;3.97;;;;;;;13.43;76.84;100256.38;5048289;28;20079;-80
2024/03/31 06:12:32;;;;;;;13.15;3.65;;;;;;;13.52;77.15;100257.66;5034143;28;20095;-78
2024/03/31 06:14:57;;;;;;;8.50;3.50;;;;;;;13.92;73.36;100256.91;5037289;28;20033;-79
2024/03/31 06:17:22;;;;;;;9.98;3.95;;;;;;;13.84;73.16;100244.69;5047591;28;20024;-79
2024/03/31 06:19:48;;;;;;;14.27;3.47;;;;;;;14.02;71.90;100269.72;5048243;28;20063;-78
2024/03/31 06:22:14;;;;;;;9.73;3.38;;;;;;;14.35;71.66;100263.69;5047055;28;20033;-78
2024/03/31 06:24:41;;;;;;;12.25;4.63;;;;;;;14.30;73.56;100279.66;5047541;28;20021;-79
2024/03/31 06:27:06;;;;;;;9.95;3.63;;;;;;;14.55;70.88;100270.50;5047779;28;20036;-78
2024/03/31 06:29:32;;;;;;;10.07;3.45;;;;;;;14.68;66.79;100286.31;5067094;28;20052;-78
2024/03/31 06:31:57;;;;;;;11.77;3.47;;;;;;;14.88;66.54;100274.34;5058284;28;20104;-80
2024/03/31 06:34:22;;;;;;;12.30;3.70;;;;;;;14.73;70.29;100261.44;5043928;28;20033;-78
2024/03/31 06:36:48;;;;;;;10.50;3.65;;;;;;;14.63;71.46;100270.94;5047868;28;20047;-79
2024/03/31 06:39:13;;;;;;;9.90;3.08;;;;;;;14.48;72.69;100275.97;5058793;28;20109;-79
2024/03/31 06:41:39;;;;;;;6.85;3.10;;;;;;;14.53;69.88;100261.88;5047886;28;20032;-77
2024/03/31 06:44:05;;;;;;;11.68;2.97;;;;;;;14.94;70.61;100270.69;5047589;28;20653;-79
2024/03/31 06:46:30;;;;;;;9.38;3.78;;;;;;;14.81;69.40;100259.19;5047295;28;20055;-78
2024/03/31 06:48:55;;;;;;;12.80;4.50;;;;;;;14.77;69.62;100252.69;5044942;28;20124;-78
2024/03/31 06:51:21;;;;;;;12.82;3.70;;;;;;;14.94;65.27;100257.25;5045797;28;20060;-79
2024/03/31 06:53:47;;;;;;;11.20;3.83;;;;;;;15.24;63.98;100284.63;5045380;28;20610;-78
2024/03/31 06:56:13;;;;;;;14.27;3.58;;;;;;;15.08;66.75;100263.94;5046987;28;20111;-78
2024/03/31 06:58:38;;;;;;;14.10;4.00;;;;;;;15.54;67.36;100286.13;5046812;28;20162;-80
2024/03/31 07:01:04;;;;;;;15.35;3.80;;;;;;;15.62;66.83;100272.25;5046757;28;20059;-80
2024/03/31 07:03:29;;;;;;;11.55;3.72;;;;;;;15.87;66.88;100276.41;5046519;28;20699;-79
2024/03/31 07:05:54;;;;;;;11.43;4.35;;;;;;;15.80;68.46;100270.41;5047281;28;20032;-80
2024/03/31 07:08:20;;;;;;;15.98;5.00;;;;;;;16.15;66.48;100264.66;5046037;28;20029;-79
2024/03/31 07:10:45;;;;;;;12.15;3.88;;;;;;;16.39;61.96;100278.66;5047429;28;20180;-80
2024/03/31 07:13:11;;;;;;;12.60;3.75;;;;;;;16.45;63.45;100291.13;5046991;28;20040;-81
2024/03/31 07:15:36;;;;;;;9.95;3.47;;;;;;;16.06;63.16;100285.81;5047226;28;20078;-81
2024/03/31 07:18:06;;;;;;;13.55;3.40;;;;;;;16.40;63.35;100280.28;5047111;28;20021;-80
2024/03/31 07:20:33;;;;;;;10.73;3.92;;;;;;;16.11;63.91;100217.00;5047610;28;20025;-81
2024/03/31 07:22:58;;;;;;;11.07;3.58;;;;;;;16.60;59.67;100276.19;5047837;28;20029;-81
2024/03/31 07:25:24;;;;;;;12.95;3.65;;;;;;;16.43;58.38;100247.47;5047300;28;20413;-80
2024/03/31 07:27:49;;;;;;;12.73;4.10;;;;;;;16.88;57.04;100264.38;5046232;28;20057;-80
2024/03/31 07:30:15;;;;;;;11.90;3.75;;;;;;;17.30;56.83;100260.13;5047125;28;20078;-80
2024/03/31 07:32:40;;;;;;;13.48;3.72;;;;;;;17.30;57.58;100270.91;5050206;28;20421;-81
2024/03/31 07:35:06;;;;;;;12.93;3.20;;;;;;;17.98;57.34;100293.47;5049551;28;20017;-80
2024/03/31 07:37:31;;;;;;;11.75;3.28;;;;;;;18.21;54.50;100278.72;5049704;28;20021;-80
2024/03/31 07:39:56;;;;;;;9.30;3.28;;;;;;;18.31;54.90;100280.66;5050486;28;20108;-79
2024/03/31 07:42:22;;;;;;;9.32;3.40;;;;;;;18.63;51.11;100288.59;5050166;28;20032;-79
2024/03/31 07:44:48;;;;;;;14.65;3.50;;;;;;;18.90;51.51;100294.84;5050475;28;20070;-79
2024/03/31 07:47:13;;;;;;;9.52;3.60;;;;;;;18.51;49.24;100288.00;5049743;28;20044;-80
2024/03/31 07:49:39;;;;;;;7.68;2.75;;;;;;;18.80;49.79;100291.06;5049073;28;20028;-79
2024/03/31 07:52:04;;;;;;;8.13;2.65;;;;;;;18.82;51.47;100288.91;5050534;28;20120;-79
2024/03/31 07:54:30;;;;;;;15.70;3.88;;;;;;;18.51;51.43;100263.72;5051056;28;20487;-81
2024/03/31 07:56:55;;;;;;;11.27;3.10;;;;;;;18.70;49.42;100277.50;5050436;28;20448;-80
2024/03/31 07:59:21;;;;;;;10.07;3.20;;;;;;;19.21;47.43;100293.78;5048905;28;20036;-80
2024/03/31 08:01:46;;;;;;;8.52;2.72;;;;;;;19.61;48.47;100292.13;5050445;28;20021;-81
2024/03/31 08:04:11;;;;;;;10.68;2.75;;;;;;;19.76;45.23;100288.63;5050854;28;20029;-80
2024/03/31 08:06:37;;;;;;;12.07;3.05;;;;;;;20.06;45.04;100285.00;5050908;28;20033;-80
2024/03/31 08:09:04;;;;;;;10.93;2.95;;;;;;;20.11;48.72;100288.78;5050469;28;20489;-80
2024/03/31 08:11:29;;;;;;;12.48;3.65;;;;;;;19.72;50.40;100273.22;5050771;28;20516;-81
2024/03/31 08:13:55;;;;;;;11.82;3.22;;;;;;;19.73;49.55;100280.25;5050259;28;20056;-80
2024/03/31 08:16:20;;;;;;;11.32;2.88;;;;;;;19.57;48.02;100261.28;5048872;28;20490;-81
2024/03/31 08:18:45;;;;;;;11.23;2.83;;;;;;;20.09;46.35;100288.25;5049967;28;20025;-79
2024/03/31 08:21:11;;;;;;;12.02;3.25;;;;;;;20.26;46.51;100297.63;5050113;28;20029;-80
2024/03/31 08:23:37;;;;;;;11.32;3.20;;;;;;;20.55;46.85;100277.19;5049165;28;20143;-80
2024/03/31 08:26:02;;;;;;;11.48;3.00;;;;;;;20.95;46.13;100286.16;5050220;28;20418;-81
2024/03/31 08:28:27;;;;;;;11.20;3.20;;;;;;;20.71;45.80;100284.16;5050501;28;20025;-79
2024/03/31 08:30:53;;;;;;;13.65;3.42;;;;;;;20.73;44.72;100290.09;5050265;28;20053;-81
2024/03/31 08:33:18;;;;;;;8.95;3.80;;;;;;;20.79;44.71;100261.88;5050267;28;20405;-81
2024/03/31 08:35:51;;;;;;;12.75;3.33;;;;;;;20.81;46.41;100286.00;5052071;28;20028;-80
2024/03/31 08:38:16;;;;;;;13.90;3.42;;;;;;;20.76;45.06;100267.03;5048699;28;20505;-80
2024/03/31 08:40:43;;;;;;;14.50;3.38;;;;;;;20.96;44.65;100287.78;5050074;28;20032;-81
2024/03/31 08:43:09;;;;;;;14.02;2.97;;;;;;;21.35;42.84;100284.19;5048488;28;20033;-80
2024/03/31 08:45:35;;;;;;;11.27;3.13;;;;;;;21.22;44.78;100253.13;5048927;28;20968;-80
2024/03/31 08:48:02;;;;;;;11.25;3.13;;;;;;;21.22;44.63;100243.09;5049628;28;20516;-80
2024/03/31 08:50:28;;;;;;;9.32;2.67;;;;;;;21.42;44.70;100271.13;5049726;28;20025;-79
2024/03/31 08:52:53;;;;;;;14.63;3.20;;;;;;;21.36;44.72;100258.69;5049277;28;20120;-80
2024/03/31 08:55:19;;;;;;;7.32;2.75;;;;;;;21.80;43.15;100263.13;5050295;28;20025;-79
2024/03/31 08:57:45;;;;;;;11.18;3.03;;;;;;;22.21;42.70;100263.47;5047453;28;20033;-81
2024/03/31 09:00:12;;;;;;;10.57;3.30;;;;;;;22.44;40.31;100259.09;5049753;28;20116;-78
2024/03/31 09:02:38;;;;;;;11.98;2.90;;;;;;;22.79;41.30;100256.16;5049179;28;20567;-79
2024/03/31 09:05:04;;;;;;;10.65;3.05;;;;;;;22.74;40.45;100246.19;5035580;28;20039;-80
2024/03/31 09:07:31;;;;;;;15.82;3.40;;;;;;;22.53;40.58;100253.00;5044862;28;20048;-81
2024/03/31 09:09:57;;;;;;;12.02;2.80;;;;;;;22.36;42.74;100248.88;5049191;28;20498;-79
2024/03/31 09:12:23;;;;;;;12.40;3.28;;;;;;;23.38;41.53;100251.13;5049319;28;20056;-79
2024/03/31 09:14:48;;;;;;;14.02;3.58;;;;;;;22.89;39.96;100253.28;5036194;28;20033;-79
2024/03/31 09:17:14;;;;;;;12.48;3.67;;;;;;;23.36;39.53;100253.34;5040612;28;20025;-81
2024/03/31 09:19:40;;;;;;;14.73;3.00;;;;;;;23.08;40.46;100239.66;5047239;28;20032;-79
2024/03/31 09:22:07;;;;;;;8.43;2.97;;;;;;;23.56;41.85;100238.50;5064511;28;20078;-79
2024/03/31 09:24:32;;;;;;;7.68;2.40;;;;;;;24.18;39.89;100257.19;5048979;28;20020;-81
2024/03/31 09:26:59;;;;;;;8.32;2.92;;;;;;;24.00;40.13;100235.22;5048865;28;20043;-81
2024/03/31 09:29:26;;;;;;;12.75;3.17;;;;;;;23.98;39.71;100229.25;5048549;28;20079;-81
2024/03/31 09:31:52;;;;;;;36.53;16.80;;;;;;;24.36;39.35;100220.00;5067475;28;20520;-80
2024/03/31 09:34:17;;;;;;;10.40;2.90;;;;;;;24.26;38.90;100200.03;5058737;28;20033;-80
2024/03/31 09:36:43;;;;;;;11.65;3.00;;;;;;;24.53;37.88;100219.38;5034664;28;20031;-81
2024/03/31 09:39:08;;;;;;;10.20;2.47;;;;;;;24.08;37.66;100214.63;5048477;28;20031;-81
2024/03/31 09:41:34;;;;;;;8.82;2.88;;;;;;;24.19;38.65;100220.66;5048516;28;20460;-79
2024/03/31 09:44:00;;;;;;;14.80;3.53;;;;;;;24.36;38.75;100212.63;5047774;28;20099;-79
2024/03/31 09:46:26;;;;;;;13.07;3.30;;;;;;;24.56;37.64;100202.38;5048708;28;20037;-80
2024/03/31 09:49:10;;;;;;;10.95;3.38;;;;;;;24.75;36.21;100219.38;5048374;28;20044;-80
2024/03/31 09:51:39;;;;;;;10.60;3.15;;;;;;;24.94;36.86;100235.56;5048633;28;20036;-82
2024/03/31 09:54:33;;;;;;;9.60;3.22;;;;;;;24.66;38.55;100221.22;5048560;28;20558;-79
2024/03/31 09:57:07;;;;;;;11.13;3.20;;;;;;;25.20;38.34;100222.06;5027237;28;20041;-80
2024/03/31 09:59:40;;;;;;;16.83;4.13;;;;;;;24.94;38.38;100188.38;5048208;28;20055;-80
2024/03/31 10:02:13;;;;;;;12.20;3.15;;;;;;;24.93;36.57;100194.94;5048149;28;20031;-81
2024/03/31 10:05:17;;;;;;;12.60;3.15;;;;;;;25.03;37.71;100205.63;5048326;28;20025;-80
2024/03/31 10:07:43;;;;;;;15.48;3.63;;;;;;;25.60;37.08;100213.94;5035477;28;20497;-81
2024/03/31 10:10:09;;;;;;;10.02;3.00;;;;;;;25.51;35.74;100193.97;5048004;28;20039;-79
2024/03/31 10:12:37;;;;;;;11.52;3.10;;;;;;;25.76;35.14;100217.00;5048017;28;20108;-81
2024/03/31 10:15:05;;;;;;;10.30;2.85;;;;;;;26.05;34.32;100191.06;5047868;28;20789;-79
2024/03/31 10:17:31;;;;;;;9.95;2.92;;;;;;;26.66;35.56;100199.28;5047781;28;20032;-80
2024/03/31 10:19:58;;;;;;;10.88;3.33;;;;;;;26.86;33.52;100198.63;5047844;28;20063;-80
2024/03/31 10:22:24;;;;;;;15.25;3.70;;;;;;;27.26;33.59;100205.78;5047555;28;20406;-80
2024/03/31 10:24:51;;;;;;;8.65;2.53;;;;;;;26.83;30.11;100218.44;5048593;28;20091;-80
2024/03/31 10:27:17;;;;;;;;;;;;;;;26.88;28.56;100211.97;5048511;28;20067;-79
2024/03/31 10:29:44;;;;;;;8.20;2.45;;;;;;;27.55;29.58;100215.97;5047629;28;19959;-81
2024/03/31 10:32:10;;;;;;;8.10;2.15;;;;;;;27.20;28.39;100210.59;5047897;28;20031;-80
2024/03/31 10:34:38;;;;;;;10.38;2.70;;;;;;;27.09;27.81;100206.59;5047703;28;20041;-80
2024/03/31 10:37:04;;;;;;;;;;;;;;;27.89;29.43;100202.44;5048051;28;20025;-80
2024/03/31 10:39:29;;;;;;;9.45;2.60;;;;;;;28.06;26.45;100169.44;5047820;28;19916;-79
2024/03/31 10:41:56;;;;;;;8.90;2.50;;;;;;;27.02;29.30;100178.94;5047765;28;20039;-79
2024/03/31 10:44:22;;;;;;;7.97;2.20;;;;;;;27.09;30.02;100189.38;5047581;28;20024;-80
2024/03/31 10:46:48;;;;;;;8.15;2.40;;;;;;;27.25;31.15;100161.16;5047360;28;20072;-80
2024/03/31 10:49:13;;;;;;;11.77;2.58;;;;;;;27.84;30.27;100174.06;5047068;28;20119;-80
2024/03/31 10:51:42;;;;;;;8.77;2.63;;;;;;;27.61;28.38;100184.53;5047496;28;20067;-79
2024/03/31 10:54:27;;;;;;;8.95;2.30;;;;;;;27.72;27.48;100189.63;5047487;28;20021;-80
2024/03/31 10:56:59;;;;;;;6.47;2.40;;;;;;;28.01;28.58;100180.59;5047024;28;20043;-80
2024/03/31 10:59:27;;;;;;;7.70;1.90;;;;;;;28.35;26.36;100178.72;5046809;28;20048;-80
2024/03/31 11:01:52;;;;;;;6.78;2.03;;;;;;;27.83;27.32;100179.91;5047737;28;20032;-80
2024/03/31 11:04:19;;;;;;;7.90;2.35;;;;;;;28.27;26.64;100172.16;5047116;28;20017;-80
2024/03/31 11:06:48;;;;;;;7.13;2.10;;;;;;;27.75;27.91;100140.44;5046101;28;20036;-80
2024/03/31 11:09:14;;;;;;;6.47;2.35;;;;;;;28.20;27.85;100153.50;5051512;28;20112;-80
2024/03/31 11:11:39;;;;;;;8.32;1.90;;;;;;;28.25;27.92;100130.56;5049752;28;20491;-80
2024/03/31 11:14:06;;;;;;;5.47;1.77;;;;;;;28.07;29.17;100146.34;5050696;28;20021;-80
2024/03/31 11:16:32;;;;;;;7.93;2.22;;;;;;;28.36;28.01;100131.75;5051525;28;20494;-81